createdAt,value
2023-08-24T00:00:30.732Z,56.50
2023-08-24T00:02:59.058Z,56.50
2023-08-24T00:05:27.392Z,56.50
2023-08-24T00:07:55.630Z,56.60
2023-08-24T00:10:23.859Z,56.60
2023-08-24T00:12:52.079Z,56.60
2023-08-24T00:15:21.902Z,56.60
2023-08-24T00:17:51.005Z,56.60
2023-08-24T00:20:20.979Z,56.60
2023-08-24T00:22:49.846Z,56.60
2023-08-24T00:25:19.423Z,56.60
2023-08-24T00:27:48.048Z,56.60
2023-08-24T00:30:16.592Z,56.70
2023-08-24T00:32:46.405Z,56.70
2023-08-24T00:35:14.708Z,56.70
2023-08-24T00:37:43.697Z,56.70
2023-08-24T00:40:12.240Z,56.70
2023-08-24T00:42:41.846Z,56.70
2023-08-24T00:45:11.615Z,56.70
2023-08-24T00:47:41.762Z,56.70
2023-08-24T00:50:12.093Z,56.70
2023-08-24T00:52:42.063Z,56.70
2023-08-24T00:55:11.376Z,56.80
2023-08-24T00:57:41.768Z,56.80
2023-08-24T01:00:11.345Z,56.80
2023-08-24T01:02:40.201Z,56.80
2023-08-24T01:05:09.232Z,56.80
2023-08-24T01:07:41.419Z,56.80
2023-08-24T01:10:11.933Z,56.90
2023-08-24T01:13:03.542Z,56.90
2023-08-24T01:15:39.713Z,56.90
2023-08-24T01:18:14.737Z,56.90
2023-08-24T01:20:44.391Z,56.80
2023-08-24T01:23:29.372Z,56.90
2023-08-24T01:26:06.912Z,56.90
2023-08-24T01:28:36.052Z,56.90
2023-08-24T01:31:06.627Z,56.90
2023-08-24T01:33:34.970Z,57.00
2023-08-24T01:36:03.648Z,56.90
2023-08-24T01:38:32.720Z,57.00
2023-08-24T01:41:12.188Z,57.00
2023-08-24T01:43:44.292Z,57.00
2023-08-24T01:46:17.156Z,57.00
2023-08-24T01:48:46.553Z,57.00
2023-08-24T01:51:15.368Z,57.00
2023-08-24T01:53:45.104Z,57.10
2023-08-24T01:56:15.814Z,57.00
2023-08-24T01:58:44.379Z,57.10
2023-08-24T02:01:13.898Z,57.10
2023-08-24T02:03:42.510Z,57.10
2023-08-24T02:06:11.366Z,57.10
2023-08-24T02:08:39.652Z,57.10
2023-08-24T02:11:08.056Z,57.10
2023-08-24T02:13:37.668Z,57.10
2023-08-24T02:16:06.911Z,57.10
2023-08-24T02:18:35.680Z,57.10
2023-08-24T02:21:09.934Z,57.20
2023-08-24T02:23:38.297Z,57.10
2023-08-24T02:26:06.600Z,57.20
2023-08-24T02:28:35.184Z,57.10
2023-08-24T02:31:05.042Z,57.20
2023-08-24T02:33:33.922Z,57.20
2023-08-24T02:36:02.451Z,57.20
2023-08-24T02:38:30.623Z,57.20
2023-08-24T02:41:05.627Z,57.20
2023-08-24T02:43:34.267Z,57.20
2023-08-24T02:46:05.800Z,57.20
2023-08-24T02:48:34.733Z,57.20
2023-08-24T02:51:04.993Z,57.20
2023-08-24T02:53:33.960Z,57.20
2023-08-24T02:56:02.581Z,57.20
2023-08-24T02:58:31.391Z,57.20
2023-08-24T03:00:59.953Z,57.20
2023-08-24T03:03:30.136Z,57.30
2023-08-24T03:05:59.386Z,57.30
2023-08-24T03:08:28.121Z,57.30
2023-08-24T03:10:56.343Z,57.30
2023-08-24T03:13:24.677Z,57.30
2023-08-24T03:15:53.322Z,57.30
2023-08-24T03:18:22.299Z,57.30
2023-08-24T03:20:52.040Z,57.30
2023-08-24T03:23:20.428Z,57.30
2023-08-24T03:25:48.673Z,57.30
2023-08-24T03:28:17.017Z,57.30
2023-08-24T03:30:49.424Z,57.40
2023-08-24T03:33:17.905Z,57.40
2023-08-24T03:35:46.301Z,57.40
2023-08-24T03:38:16.450Z,57.40
2023-08-24T03:40:44.903Z,57.40
2023-08-24T03:43:13.516Z,57.40
2023-08-24T03:45:40.879Z,57.40
2023-08-24T03:48:09.228Z,57.40
2023-08-24T03:50:37.514Z,57.40
2023-08-24T03:53:06.559Z,57.40
2023-08-24T03:55:36.240Z,57.50
2023-08-24T03:58:04.754Z,57.40
2023-08-24T04:00:33.139Z,57.50
2023-08-24T04:03:01.480Z,57.50
2023-08-24T04:05:30.040Z,57.50
2023-08-24T04:07:58.298Z,57.50
2023-08-24T04:10:26.520Z,57.40
2023-08-24T04:12:56.215Z,57.40
2023-08-24T04:15:24.667Z,57.50
2023-08-24T04:17:53.409Z,57.50
2023-08-24T04:20:22.378Z,57.50
2023-08-24T04:22:50.680Z,57.40
2023-08-24T04:25:18.982Z,57.50
2023-08-24T04:27:47.249Z,57.50
2023-08-24T04:30:16.992Z,57.50
2023-08-24T04:32:45.341Z,57.60
2023-08-24T04:35:13.557Z,57.50
2023-08-24T04:37:41.810Z,57.50
2023-08-24T04:40:12.272Z,57.50
2023-08-24T04:42:40.368Z,57.60
2023-08-24T04:45:10.731Z,57.50
2023-08-24T04:47:40.470Z,57.50
2023-08-24T04:50:10.366Z,57.50
2023-08-24T04:52:38.632Z,57.50
2023-08-24T04:55:07.780Z,57.50
2023-08-24T04:57:35.998Z,57.60
2023-08-24T05:00:06.665Z,57.60
2023-08-24T05:02:35.107Z,57.50
2023-08-24T05:05:05.187Z,57.60
2023-08-24T05:07:33.419Z,57.60
2023-08-24T05:10:01.605Z,57.60
2023-08-24T05:12:30.673Z,57.60
2023-08-24T05:14:59.061Z,57.60
2023-08-24T05:17:29.272Z,57.60
2023-08-24T05:19:57.649Z,57.60
2023-08-24T05:22:27.375Z,57.60
2023-08-24T05:24:55.812Z,57.60
2023-08-24T05:27:24.086Z,57.60
2023-08-24T05:29:52.374Z,57.60
2023-08-24T05:32:20.675Z,57.60
2023-08-24T05:34:49.051Z,57.60
2023-08-24T05:37:17.491Z,57.60
2023-08-24T05:39:47.104Z,57.70
2023-08-24T05:42:15.540Z,57.70
2023-08-24T05:44:43.922Z,57.60
2023-08-24T05:47:12.190Z,57.70
2023-08-24T05:49:40.618Z,57.70
2023-08-24T05:52:08.860Z,57.70
2023-08-24T05:54:38.633Z,57.70
2023-08-24T05:57:08.346Z,57.60
2023-08-24T05:59:36.702Z,57.70
2023-08-24T06:02:05.659Z,57.70
2023-08-24T06:04:33.954Z,57.70
2023-08-24T06:07:02.411Z,57.70
2023-08-24T06:09:30.677Z,57.70
2023-08-24T06:11:58.954Z,57.70
2023-08-24T06:14:28.700Z,57.70
2023-08-24T06:16:57.214Z,57.70
2023-08-24T06:19:25.661Z,57.70
2023-08-24T06:21:54.085Z,57.80
2023-08-24T06:24:22.249Z,57.70
2023-08-24T06:26:50.547Z,57.80
2023-08-24T06:29:18.909Z,57.70
2023-08-24T06:31:48.701Z,57.70
2023-08-24T06:34:16.892Z,57.80
2023-08-24T06:36:45.167Z,57.70
2023-08-24T06:39:13.813Z,57.70
2023-08-24T06:41:42.099Z,57.80
2023-08-24T06:44:10.860Z,57.70
2023-08-24T06:46:39.206Z,57.80
2023-08-24T06:49:11.293Z,57.80
2023-08-24T06:51:39.577Z,57.80
2023-08-24T06:54:08.222Z,57.80
2023-08-24T06:56:36.395Z,57.80
2023-08-24T06:59:04.681Z,57.80
2023-08-24T07:01:33.244Z,57.80
2023-08-24T07:04:01.534Z,57.80
2023-08-24T07:06:31.192Z,57.80
2023-08-24T07:08:59.371Z,57.80
2023-08-24T07:11:27.592Z,57.80
2023-08-24T07:13:55.897Z,57.80
2023-08-24T07:16:24.120Z,57.80
2023-08-24T07:18:52.683Z,58.50
2023-08-24T07:21:20.924Z,57.80
2023-08-24T07:23:50.544Z,57.80
2023-08-24T07:26:18.763Z,57.80
2023-08-24T07:28:47.159Z,57.80
2023-08-24T07:31:15.538Z,57.80
2023-08-24T07:33:45.371Z,57.80
2023-08-24T07:36:13.603Z,57.90
2023-08-24T07:38:41.834Z,57.80
2023-08-24T07:41:13.215Z,57.90
2023-08-24T07:43:41.494Z,57.80
2023-08-24T07:46:10.353Z,57.80
2023-08-24T07:48:38.720Z,57.80
2023-08-24T07:51:07.744Z,57.80
2023-08-24T07:53:36.070Z,57.90
2023-08-24T07:56:04.293Z,57.80
2023-08-24T07:58:33.961Z,57.90
2023-08-24T08:01:02.458Z,57.90
2023-08-24T08:03:32.069Z,57.90
2023-08-24T08:06:00.649Z,57.90
2023-08-24T08:08:29.041Z,57.90
2023-08-24T08:11:01.805Z,57.90
2023-08-24T08:13:32.236Z,57.90
2023-08-24T08:16:06.341Z,57.90
2023-08-24T08:18:35.277Z,57.90
2023-08-24T08:21:04.858Z,57.90
2023-08-24T08:23:33.085Z,57.90
2023-08-24T08:26:01.341Z,57.90
2023-08-24T08:28:29.590Z,58.00
2023-08-24T08:30:57.949Z,58.00
2023-08-24T08:33:27.633Z,58.00
2023-08-24T08:35:55.865Z,58.00
2023-08-24T08:38:27.168Z,58.00
2023-08-24T08:40:58.358Z,58.00
2023-08-24T08:43:27.393Z,58.00
2023-08-24T08:45:57.809Z,58.00
2023-08-24T08:48:30.221Z,58.00
2023-08-24T08:51:02.375Z,58.00
2023-08-24T08:53:30.796Z,58.10
2023-08-24T08:56:04.685Z,58.10
2023-08-24T08:58:34.154Z,58.10
2023-08-24T09:01:05.286Z,58.10
2023-08-24T09:03:35.359Z,58.10
2023-08-24T09:06:06.080Z,58.10
2023-08-24T09:08:34.735Z,58.10
2023-08-24T09:11:04.124Z,58.10
2023-08-24T09:13:33.629Z,58.20
2023-08-24T09:16:07.519Z,58.20
2023-08-24T09:18:41.580Z,58.20
2023-08-24T09:21:13.675Z,58.10
2023-08-24T09:23:47.192Z,58.20
2023-08-24T09:26:15.601Z,58.20
2023-08-24T09:28:45.992Z,58.20
2023-08-24T09:31:15.436Z,58.20
2023-08-24T09:33:47.323Z,58.20
2023-08-24T09:36:17.010Z,58.20
2023-08-24T09:38:50.813Z,58.20
2023-08-24T09:41:19.177Z,58.20
2023-08-24T09:43:47.490Z,58.20
2023-08-24T09:46:22.314Z,58.50
2023-08-24T09:48:59.243Z,58.20
2023-08-24T09:51:29.485Z,58.30
2023-08-24T09:54:00.334Z,58.20
2023-08-24T09:56:31.056Z,58.20
2023-08-24T09:59:02.379Z,58.20
2023-08-24T10:01:31.993Z,58.20
2023-08-24T10:04:02.411Z,58.20
2023-08-24T10:06:31.612Z,58.30
2023-08-24T10:09:05.497Z,58.20
2023-08-24T10:11:37.276Z,58.20
2023-08-24T10:14:11.169Z,58.30
2023-08-24T10:16:41.705Z,58.30
2023-08-24T10:19:11.502Z,58.30
2023-08-24T10:21:40.771Z,58.30
2023-08-24T10:24:10.959Z,58.30
2023-08-24T10:26:41.661Z,58.30
2023-08-24T10:29:10.115Z,58.30
2023-08-24T10:31:39.419Z,58.30
2023-08-24T10:34:09.494Z,58.30
2023-08-24T10:36:41.014Z,58.40
2023-08-24T10:39:09.536Z,58.40
2023-08-24T10:41:51.125Z,59.00
2023-08-24T10:44:26.485Z,58.40
2023-08-24T10:47:14.507Z,58.30
2023-08-24T10:49:43.277Z,58.40
2023-08-24T10:52:23.761Z,58.30
2023-08-24T10:54:53.457Z,58.40
2023-08-24T10:57:23.986Z,58.30
2023-08-24T11:00:01.711Z,58.40
2023-08-24T11:02:30.061Z,58.40
2023-08-24T11:05:18.082Z,58.40
2023-08-24T11:07:58.784Z,58.40
2023-08-24T11:10:28.504Z,58.40
2023-08-24T11:13:24.702Z,59.10
2023-08-24T11:15:58.824Z,58.40
2023-08-24T11:18:28.542Z,58.40
2023-08-24T11:20:58.033Z,58.40
2023-08-24T11:23:27.858Z,58.40
2023-08-24T11:25:59.070Z,58.40
2023-08-24T11:28:28.501Z,58.40
2023-08-24T11:30:57.942Z,58.40
2023-08-24T11:33:31.306Z,58.40
2023-08-24T11:36:00.474Z,58.40
2023-08-24T11:38:40.635Z,58.30
2023-08-24T11:41:19.430Z,58.30
2023-08-24T11:43:49.099Z,58.30
2023-08-24T11:46:18.677Z,58.30
2023-08-24T11:48:47.634Z,58.30
2023-08-24T11:51:20.952Z,58.40
2023-08-24T11:53:59.299Z,58.30
2023-08-24T11:56:29.377Z,58.20
2023-08-24T11:58:57.591Z,58.30
2023-08-24T12:01:28.500Z,58.10
2023-08-24T12:03:56.860Z,58.80
2023-08-24T12:06:29.602Z,58.10
2023-08-24T12:08:59.898Z,58.10
2023-08-24T12:11:28.267Z,58.10
2023-08-24T12:13:57.471Z,58.10
2023-08-24T12:16:25.987Z,58.10
2023-08-24T12:18:55.987Z,58.10
2023-08-24T12:21:24.764Z,58.10
2023-08-24T12:24:02.133Z,58.10
2023-08-24T12:26:30.909Z,58.00
2023-08-24T12:29:04.438Z,58.00
2023-08-24T12:31:33.712Z,58.10
2023-08-24T12:34:04.574Z,58.00
2023-08-24T12:36:33.870Z,58.00
2023-08-24T12:39:05.014Z,58.00
2023-08-24T12:41:33.613Z,58.00
2023-08-24T12:44:06.227Z,58.00
2023-08-24T12:46:35.539Z,57.90
2023-08-24T12:49:03.946Z,57.90
2023-08-24T12:51:32.217Z,58.00
2023-08-24T12:54:00.391Z,57.80
2023-08-24T12:56:29.982Z,57.80
2023-08-24T12:58:58.209Z,57.80
2023-08-24T13:01:26.496Z,57.80
2023-08-24T13:03:54.892Z,57.70
2023-08-24T13:06:24.742Z,57.80
2023-08-24T13:08:54.819Z,57.70
2023-08-24T13:11:23.832Z,57.70
2023-08-24T13:13:53.399Z,57.60
2023-08-24T13:16:21.728Z,57.60
2023-08-24T13:18:50.145Z,57.50
2023-08-24T13:21:19.185Z,57.40
2023-08-24T13:23:48.401Z,57.50
2023-08-24T13:26:21.006Z,57.50
2023-08-24T13:28:49.705Z,57.50
2023-08-24T13:31:20.844Z,57.50
2023-08-24T13:33:49.089Z,57.40
2023-08-24T13:36:17.337Z,57.40
2023-08-24T13:38:46.809Z,57.30
2023-08-24T13:41:15.245Z,57.40
2023-08-24T13:43:43.602Z,57.30
2023-08-24T13:46:12.072Z,57.20
2023-08-24T13:48:41.768Z,57.20
2023-08-24T13:51:10.433Z,57.20
2023-08-24T13:53:38.729Z,57.20
2023-08-24T13:56:07.631Z,57.20
2023-08-24T13:58:36.701Z,57.20
2023-08-24T14:01:05.016Z,57.10
2023-08-24T14:03:33.482Z,57.10
2023-08-24T14:06:03.654Z,57.00
2023-08-24T14:08:31.916Z,57.10
2023-08-24T14:11:00.151Z,57.00
2023-08-24T14:13:28.412Z,57.00
2023-08-24T14:15:57.241Z,57.00
2023-08-24T14:18:25.553Z,57.00
2023-08-24T14:20:54.066Z,56.90
2023-08-24T14:23:23.616Z,56.80
2023-08-24T14:25:51.954Z,56.80
2023-08-24T14:28:23.456Z,56.80
2023-08-24T14:30:52.116Z,56.80
2023-08-24T14:33:20.476Z,56.90
2023-08-24T14:35:55.003Z,56.80
2023-08-24T14:38:24.653Z,56.80
2023-08-24T14:40:52.886Z,56.70
2023-08-24T14:43:21.180Z,56.70
2023-08-24T14:45:49.478Z,56.70
2023-08-24T14:48:18.137Z,56.60
2023-08-24T14:50:46.502Z,56.50
2023-08-24T14:53:14.867Z,56.50
2023-08-24T14:55:44.664Z,56.60
2023-08-24T14:58:13.106Z,57.10
2023-08-24T15:00:41.357Z,56.50
2023-08-24T15:03:10.144Z,56.40
2023-08-24T15:05:44.465Z,56.40
2023-08-24T15:08:13.147Z,56.40
2023-08-24T15:10:41.491Z,56.40
2023-08-24T15:13:11.121Z,56.30
2023-08-24T15:15:39.645Z,56.30
2023-08-24T15:18:08.225Z,56.20
2023-08-24T15:20:36.532Z,56.20
2023-08-24T15:23:05.099Z,56.20
2023-08-24T15:25:33.406Z,56.20
2023-08-24T15:28:01.749Z,56.20
2023-08-24T15:30:31.394Z,56.10
2023-08-24T15:32:59.678Z,56.10
2023-08-24T15:35:29.317Z,56.10
2023-08-24T15:37:57.737Z,56.00
2023-08-24T15:40:25.910Z,56.00
2023-08-24T15:42:54.134Z,56.00
2023-08-24T15:45:22.502Z,55.90
2023-08-24T15:47:52.370Z,56.00
2023-08-24T15:50:20.965Z,55.90
2023-08-24T15:52:49.398Z,55.90
2023-08-24T15:55:17.962Z,55.80
2023-08-24T15:57:46.204Z,55.80
2023-08-24T16:00:16.014Z,55.80
2023-08-24T16:02:44.425Z,55.80
2023-08-24T16:05:14.212Z,55.70
2023-08-24T16:07:42.530Z,55.70
2023-08-24T16:10:11.788Z,55.70
2023-08-24T16:12:40.088Z,55.60
2023-08-24T16:15:09.415Z,55.60
2023-08-24T16:17:37.808Z,55.50
2023-08-24T16:20:10.886Z,55.50
2023-08-24T16:22:41.056Z,55.40
2023-08-24T16:25:10.253Z,55.50
2023-08-24T16:27:39.779Z,55.40
2023-08-24T16:30:09.548Z,55.50
2023-08-24T16:32:37.877Z,55.30
2023-08-24T16:35:06.812Z,55.30
2023-08-24T16:37:35.126Z,55.20
2023-08-24T16:40:07.735Z,55.20
2023-08-24T16:42:36.005Z,55.20
2023-08-24T16:45:04.540Z,55.20
2023-08-24T16:47:32.769Z,55.10
2023-08-24T16:50:01.117Z,55.10
2023-08-24T16:52:29.394Z,55.10
2023-08-24T16:54:57.633Z,55.10
2023-08-24T16:57:27.756Z,55.00
2023-08-24T16:59:56.065Z,55.00
2023-08-24T17:02:24.361Z,55.00
2023-08-24T17:04:52.730Z,55.00
2023-08-24T17:07:20.943Z,55.00
2023-08-24T17:09:49.213Z,55.00
2023-08-24T17:12:17.579Z,54.90
2023-08-24T17:14:47.249Z,55.00
2023-08-24T17:17:15.457Z,54.90
2023-08-24T17:19:43.749Z,54.80
2023-08-24T17:22:12.040Z,54.80
2023-08-24T17:24:40.209Z,54.80
2023-08-24T17:27:08.426Z,54.90
2023-08-24T17:29:36.729Z,54.80
2023-08-24T17:32:06.712Z,54.80
2023-08-24T17:34:34.917Z,54.70
2023-08-24T17:37:03.119Z,54.60
2023-08-24T17:39:31.304Z,54.70
2023-08-24T17:41:59.597Z,54.70
2023-08-24T17:44:31.143Z,54.70
2023-08-24T17:46:59.480Z,54.60
2023-08-24T17:49:29.358Z,54.60
2023-08-24T17:51:58.111Z,54.70
2023-08-24T17:54:27.244Z,54.70
2023-08-24T17:56:55.639Z,54.60
2023-08-24T17:59:23.941Z,54.50
2023-08-24T18:01:52.161Z,54.60
2023-08-24T18:04:20.699Z,54.70
2023-08-24T18:06:50.357Z,54.50
2023-08-24T18:09:18.702Z,54.50
2023-08-24T18:11:47.186Z,54.50
2023-08-24T18:14:15.596Z,54.40
2023-08-24T18:16:43.906Z,54.50
2023-08-24T18:19:12.173Z,54.40
2023-08-24T18:21:40.467Z,54.40
2023-08-24T18:24:10.553Z,54.40
2023-08-24T18:26:38.817Z,54.30
2023-08-24T18:29:07.124Z,54.30
2023-08-24T18:31:35.533Z,54.30
2023-08-24T18:34:04.594Z,54.30
2023-08-24T18:36:32.857Z,54.30
2023-08-24T18:39:01.079Z,54.30
2023-08-24T18:41:30.672Z,54.40
2023-08-24T18:43:58.968Z,54.30
2023-08-24T18:46:27.335Z,54.30
2023-08-24T18:48:55.629Z,54.30
2023-08-24T18:51:24.422Z,54.20
2023-08-24T18:53:52.649Z,54.20
2023-08-24T18:56:20.836Z,54.20
2023-08-24T18:58:50.578Z,54.20
2023-08-24T19:01:19.092Z,54.20
2023-08-24T19:03:47.536Z,54.20
2023-08-24T19:06:25.628Z,54.20
2023-08-24T19:08:57.519Z,54.20
2023-08-24T19:11:25.865Z,54.20
2023-08-24T19:13:55.594Z,54.20
2023-08-24T19:16:24.015Z,54.20
2023-08-24T19:18:52.407Z,54.20
2023-08-24T19:21:23.338Z,54.20
2023-08-24T19:23:51.660Z,54.20
2023-08-24T19:26:19.978Z,54.20
2023-08-24T19:28:48.270Z,54.10
2023-08-24T19:31:18.198Z,54.10
2023-08-24T19:33:47.065Z,54.10
2023-08-24T19:36:15.434Z,54.10
2023-08-24T19:38:43.730Z,54.10
2023-08-24T19:41:12.436Z,54.20
2023-08-24T19:43:40.845Z,54.10
2023-08-24T19:46:09.097Z,54.10
2023-08-24T19:48:39.002Z,54.10
2023-08-24T19:51:07.179Z,54.10
2023-08-24T19:53:35.486Z,54.20
2023-08-24T19:56:04.352Z,54.20
2023-08-24T19:58:32.607Z,54.10
2023-08-24T20:01:00.834Z,54.10
2023-08-24T20:03:29.334Z,54.10
2023-08-24T20:05:59.139Z,54.10
2023-08-24T20:08:28.181Z,54.10
2023-08-24T20:10:56.690Z,54.10
2023-08-24T20:13:24.955Z,54.10
2023-08-24T20:15:53.200Z,54.10
2023-08-24T20:18:21.451Z,54.10
2023-08-24T20:20:49.786Z,54.20
2023-08-24T20:23:19.369Z,54.10
2023-08-24T20:25:47.921Z,54.10
2023-08-24T20:28:16.216Z,54.10
2023-08-24T20:30:44.430Z,54.20
2023-08-24T20:33:12.709Z,54.20
2023-08-24T20:35:41.409Z,54.20
2023-08-24T20:38:09.557Z,54.20
2023-08-24T20:40:39.611Z,54.30
2023-08-24T20:43:07.778Z,54.30
2023-08-24T20:45:36.114Z,54.30
2023-08-24T20:48:04.917Z,54.30
2023-08-24T20:50:33.141Z,54.30
2023-08-24T20:53:01.986Z,54.30
2023-08-24T20:55:30.230Z,54.30
2023-08-24T20:58:00.265Z,54.30
2023-08-24T21:00:28.588Z,54.30
2023-08-24T21:02:57.129Z,54.30
2023-08-24T21:05:25.397Z,54.40
2023-08-24T21:07:56.206Z,54.40
2023-08-24T21:10:24.978Z,54.40
2023-08-24T21:12:53.314Z,54.40
2023-08-24T21:15:22.970Z,54.40
2023-08-24T21:17:51.581Z,54.40
2023-08-24T21:20:20.692Z,54.40
2023-08-24T21:22:48.962Z,54.40
2023-08-24T21:25:17.285Z,54.40
2023-08-24T21:27:45.546Z,54.40
2023-08-24T21:30:14.250Z,54.40
2023-08-24T21:32:43.860Z,54.40
2023-08-24T21:35:13.791Z,54.40
2023-08-24T21:37:42.109Z,54.50
2023-08-24T21:40:11.513Z,54.50
2023-08-24T21:42:39.732Z,54.50
2023-08-24T21:45:08.810Z,54.50
2023-08-24T21:47:37.081Z,54.60
2023-08-24T21:50:07.720Z,55.20
2023-08-24T21:52:35.652Z,54.60
2023-08-24T21:55:04.217Z,54.60
2023-08-24T21:57:32.389Z,54.60
2023-08-24T22:00:01.005Z,54.60
2023-08-24T22:02:29.429Z,54.70
2023-08-24T22:04:57.663Z,54.70
2023-08-24T22:07:27.415Z,54.70
2023-08-24T22:09:56.068Z,54.60
2023-08-24T22:12:24.408Z,54.70
2023-08-24T22:14:53.162Z,54.70
2023-08-24T22:17:21.438Z,54.70
2023-08-24T22:19:50.190Z,54.70
2023-08-24T22:22:21.586Z,54.70
2023-08-24T22:24:51.241Z,54.70
2023-08-24T22:27:19.543Z,54.80
2023-08-24T22:29:47.834Z,54.80
2023-08-24T22:32:16.005Z,54.80
2023-08-24T22:34:44.204Z,55.40
2023-08-24T22:37:12.511Z,54.80
2023-08-24T22:39:40.900Z,54.90
2023-08-24T22:42:10.581Z,54.90
2023-08-24T22:44:38.829Z,54.90
2023-08-24T22:47:07.408Z,55.00
2023-08-24T22:49:35.684Z,54.90
2023-08-24T22:52:03.956Z,55.00
2023-08-24T22:54:32.211Z,55.00
2023-08-24T22:57:00.419Z,55.00
2023-08-24T22:59:29.980Z,55.10
2023-08-24T23:01:58.148Z,55.10
2023-08-24T23:04:26.506Z,55.10
2023-08-24T23:07:05.873Z,55.10
2023-08-24T23:09:34.456Z,55.10
2023-08-24T23:12:02.736Z,55.10
2023-08-24T23:14:35.158Z,55.20
2023-08-24T23:17:03.683Z,55.20
2023-08-24T23:19:32.516Z,55.20
2023-08-24T23:22:00.861Z,55.20
2023-08-24T23:24:49.132Z,55.90
2023-08-24T23:27:17.264Z,55.30
2023-08-24T23:29:47.813Z,55.20
2023-08-24T23:32:17.917Z,55.30
2023-08-24T23:34:46.472Z,55.30
2023-08-24T23:37:14.714Z,55.30
2023-08-24T23:39:44.278Z,55.30
2023-08-24T23:42:12.525Z,55.40
2023-08-24T23:44:40.711Z,55.40
2023-08-24T23:47:10.243Z,55.40
2023-08-24T23:49:38.402Z,55.40
2023-08-24T23:52:06.827Z,55.40
2023-08-24T23:54:35.031Z,55.40
2023-08-24T23:57:04.629Z,55.40
2023-08-24T23:59:33.136Z,55.50
